• Join FlightAware (Why Join?)
  • Login
  • US Flag 
09:21AM EDT


 

Airport Tracker/Info


-or-


 

Live Flight TrackerFlight Track Log ✈ AAR214 ✈ 07-Aug-2013 ✈ RKSI / ICN - KSFO

Flight Track Log - Related Links

Times and Time Zones

All times are in EDT time to prevent confusion due to time zone crossing. See the AAR214 flight status page for this flight to view local times or setup timezone preferences in your user account.

Time Position Orientation Groundspeed Altitude Reporting Facility
EDT Latitude Longitude Course Direction KTS MPH feet Rate Location/Type
04:00AM 37.5204 127.6720 78° East  Level FlightAware Approximate
04:01AM 37.5493 127.8459 78° East  Level FlightAware Approximate
04:02AM 37.5770 128.0202 79° East  Level FlightAware Approximate
04:03AM 37.6051 128.1944 77° East  Level FlightAware Approximate
04:04AM 37.6337 128.3683 76° East  Level FlightAware Approximate
04:05AM 37.6616 128.5425 81° East  Level FlightAware Approximate
04:06AM 37.6913 128.7152 72° East  Level FlightAware Approximate
04:07AM 37.6402 128.8698 122° Southeast  Level FlightAware Approximate
04:08AM 37.5650 129.0202 122° Southeast  Level FlightAware Approximate
04:09AM 37.4899 129.1705 122° Southeast  Level FlightAware Approximate
04:10AM 37.4147 129.3206 122° Southeast  Level FlightAware Approximate
04:11AM 37.3406 129.4715 121° Southeast  Level FlightAware Approximate
04:12AM 37.2671 129.6226 121° Southeast  Level FlightAware Approximate
04:13AM 37.1934 129.7735 121° Southeast  Level FlightAware Approximate
04:14AM 37.1195 129.9240 122° Southeast  Level FlightAware Approximate
04:15AM 37.0454 130.0742 122° Southeast  Level FlightAware Approximate
04:16AM 36.9711 130.2242 122° Southeast  Level FlightAware Approximate
04:17AM 36.8966 130.3739 122° Southeast  Level FlightAware Approximate
04:18AM 36.8220 130.5233 122° Southeast  Level FlightAware Approximate
04:19AM 36.7472 130.6723 122° Southeast  Level FlightAware Approximate
04:20AM 36.6719 130.8209 122° Southeast  Level FlightAware Approximate
04:21AM 36.5964 130.9692 122° Southeast  Level FlightAware Approximate
04:22AM 36.5207 131.1172 122° Southeast  Level FlightAware Approximate
04:23AM 36.4449 131.2649 123° Southeast  Level FlightAware Approximate
04:24AM 36.3689 131.4124 123° Southeast  Level FlightAware Approximate
04:25AM 36.3614 131.5864 92° East  Level FlightAware Approximate
04:26AM 36.3557 131.7612 92° East  Level FlightAware Approximate
04:27AM 36.3498 131.9361 92° East  Level FlightAware Approximate
04:28AM 36.3436 132.1108 92° East  Level FlightAware Approximate
04:29AM 36.3372 132.2856 93° East  Level FlightAware Approximate
04:30AM 36.3304 132.4603 93° East  Level FlightAware Approximate
04:31AM 36.3235 132.6350 93° East  Level FlightAware Approximate
04:31AM 36.5150 131.1530 93° East 525 604 33,000  Level FlightAware
04:32AM 36.3163 132.8097 93° East  Level FlightAware Approximate
04:32AM 36.4490 131.2820 122° Southeast 524 603 33,000  Level FlightAware
04:32AM 36.3940 131.3940 121° Southeast 525 604 33,000  Level FlightAware
04:33AM 36.3580 131.4970 113° Southeast 524 603 33,000  Level FlightAware
04:34AM 36.3680 131.6010 83° East 513 590 33,000  Level FlightAware
04:34AM 36.3650 131.7040 92° East 512 589 33,000  Level FlightAware
04:35AM 36.3620 131.8060 92° East 513 590 33,000  Level FlightAware
04:35AM 36.3590 131.8930 92° East 513 590 33,000  Level FlightAware
04:36AM 36.3550 132.0120 92° East 513 590 33,000  Level FlightAware
04:36AM 36.3510 132.1120 93° East 514 592 33,000  Level FlightAware
04:37AM 36.3470 132.2180 93° East 516 594 33,000  Level FlightAware
04:38AM 36.3440 132.3200 92° East 516 594 33,000  Level FlightAware
04:38AM 36.3390 132.4330 93° East 516 594 33,000  Level FlightAware
04:39AM 36.3380 132.5330 91° East 516 594 33,000  Level FlightAware
04:40AM 36.3300 132.6760 94° East 519 597 33,000  Level FlightAware
04:40AM 36.3250 132.7950 93° East 519 597 33,000  Level FlightAware
04:41AM 36.3210 132.8990 93° East 518 596 33,000  Level FlightAware
04:41AM 36.3160 133.0020 93° East 517 595 33,000  Level FlightAware
04:42AM 36.3120 133.1040 93° East 516 594 33,000  Level FlightAware
04:43AM 36.3080 133.2070 93° East 513 590 33,000  Level FlightAware
04:43AM 36.3020 133.3240 94° East 512 589 33,000  Level FlightAware
04:44AM 36.2980 133.4140 93° East 512 589 33,000  Level FlightAware
04:44AM 36.2930 133.5160 93° East 511 588 33,000  Level FlightAware
04:45AM 36.2870 133.6530 93° East 510 587 33,000  Level FlightAware
04:46AM 36.2830 133.7380 93° East 511 588 33,000  Level FlightAware
04:46AM 36.2770 133.8560 94° East 509 586 33,000  Level FlightAware
04:47AM 36.2730 133.9430 93° East 509 586 33,000  Level FlightAware
04:47AM 36.2670 134.0460 94° East 509 586 33,000  Level FlightAware
04:48AM 36.2630 134.1330 93° East 510 587 33,000  Level FlightAware
04:49AM 36.2570 134.2500 94° East 510 587 33,000  Level FlightAware
04:49AM 36.2500 134.3770 94° East 510 587 33,000  Level FlightAware
04:50AM 36.2460 134.4820 93° East 507 583 33,000  Level FlightAware
04:51AM 36.2520 134.6020 86° East 501 577 33,000  Level FlightAware
04:51AM 36.2610 134.7060 84° East 500 575 33,000  Level FlightAware
04:52AM 36.2700 134.8110 84° East 500 575 33,000  Level FlightAware
04:52AM 36.2780 134.9010 84° East 501 577 33,000  Level FlightAware
04:53AM 36.2870 135.0090 84° East 502 578 33,000  Level FlightAware
04:54AM 36.2950 135.1110 84° East 502 578 33,000  Level FlightAware
04:54AM 36.3040 135.2100 84° East 502 578 33,000  Level FlightAware
04:55AM 36.3130 135.3260 84° East 501 577 33,000  Level FlightAware
04:55AM 36.3190 135.4000 84° East 501 577 33,000  Level FlightAware
04:56AM 36.3270 135.4990 84° East 501 577 33,000  Level FlightAware
04:57AM 36.3360 135.6090 84° East 501 577 33,000  Level FlightAware
04:57AM 36.3460 135.7290 84° East 501 577 33,000  Level FlightAware
04:58AM 36.3540 135.8360 85° East 502 578 33,000  Level FlightAware
04:59AM 36.3660 135.9900 84° East 504 580 33,000  Level FlightAware
04:59AM 36.3730 136.0840 85° East 505 581 33,000  Level FlightAware
04:59AM 36.3760 136.1220 84° East 505 581 33,000  Level FlightAware
05:02AM 36.4000 136.4570 85° East 504 580 33,000  Level FlightAware
05:02AM 36.4160 136.5960 82° East 500 575 33,000  Level FlightAware
05:03AM 36.4310 136.7360 82° East 500 575 33,000  Level FlightAware
05:04AM 36.4410 136.8360 83° East 498 573 33,000  Level FlightAware
05:04AM 36.4510 136.9360 83° East 499 574 33,000  Level FlightAware
05:04AM 36.4540 136.9640 82° East 499 574 33,000  Level FlightAware
05:06AM 36.4690 137.1170 83° East 500 575 33,000  Level FlightAware
05:06AM 36.4870 137.2950 83° East 501 577 33,000  Level FlightAware
05:07AM 36.4980 137.4090 83° East 501 577 33,000  Level FlightAware
05:08AM 36.5090 137.5220 83° East 501 577 33,000  Level FlightAware
05:08AM 36.5170 137.6100 84° East 502 578 33,000  Level FlightAware
05:09AM 36.5250 137.6940 83° East 502 578 33,000  Level FlightAware
05:10AM 36.5390 137.8490 84° East 505 581 33,000  Level FlightAware
05:10AM 36.5490 137.9500 83° East 507 583 33,000  Level FlightAware
05:11AM 36.5600 138.0700 83° East 508 585 33,000  Level FlightAware
05:11AM 36.5690 138.1690 84° East 507 583 33,000  Level FlightAware
05:12AM 36.5770 138.2580 84° East 507 583 33,000  Level FlightAware
05:13AM 36.5850 138.3570 84° East 506 582 33,000  Level FlightAware
05:13AM 36.5950 138.4690 84° East 507 583 33,000  Level FlightAware
05:14AM 36.6040 138.5700 84° East 507 583 33,000  Level FlightAware
05:14AM 36.6120 138.6670 84° East 508 585 33,000  Level FlightAware
05:15AM 36.6210 138.7730 84° East 510 587 33,000  Level FlightAware
05:15AM 36.6290 138.8590 83° East 510 587 33,000  Level FlightAware
05:16AM 36.6400 138.9970 84° East 511 588 33,000  Level FlightAware
05:17AM 36.6480 139.0960 84° East 512 589 33,000  Level FlightAware
05:17AM 36.6580 139.2210 84° East 512 589 33,000  Level FlightAware
05:18AM 36.6660 139.3140 84° East 511 588 33,000  Level FlightAware
05:19AM 36.6740 139.4140 84° East 511 588 33,000  Level FlightAware
05:19AM 36.6820 139.5190 85° East 513 590 33,000  Level FlightAware
05:19AM 36.6860 139.5730 85° East 513 590 33,000  Level FlightAware
05:20AM 36.6940 139.6690 84° East 516 594 33,000  Level FlightAware
05:21AM 36.7080 139.8510 84° East 519 597 33,000  Level FlightAware
05:22AM 36.7220 140.0400 85° East 520 598 33,000  Level FlightAware
05:23AM 36.7290 140.1350 85° East 522 601 33,000  Level FlightAware
05:23AM 36.7330 140.1940 85° East 522 601 33,000  Level FlightAware
05:24AM 36.7450 140.3560 85° East 523 602 33,000  Level FlightAware
05:25AM 36.7550 140.4740 84° East 522 601 33,000  Level FlightAware
05:25AM 36.7660 140.6000 84° East 522 601 33,000  Level FlightAware
05:26AM 36.7760 140.7220 84° East 522 601 33,000  Level FlightAware
05:26AM 36.7840 140.8110 84° East 523 602 33,000  Level FlightAware
05:27AM 36.7920 140.9140 84° East 524 603 33,000  Level FlightAware
05:28AM 36.8010 141.0200 84° East 523 602 33,000  Level FlightAware
05:28AM 36.8100 141.1300 84° East 523 602 33,000  Level FlightAware
05:29AM 36.8180 141.2370 85° East 524 603 33,000  Level FlightAware
05:30AM 36.8270 141.3480 84° East 524 603 33,000  Level FlightAware
05:30AM 36.8400 141.5180 84° East 523 602 33,000  Level FlightAware
05:31AM 36.8470 141.6060 84° East 522 601 33,000  Level FlightAware
05:31AM 36.8560 141.7270 85° East 523 602 33,000  Level FlightAware
05:32AM 36.8630 141.8310 85° East 523 602 33,000  Level FlightAware
05:33AM 36.8740 141.9690 84° East 525 604 33,000  Level FlightAware
05:33AM 36.8820 142.0790 85° East 524 603 33,000  Level FlightAware
05:34AM 36.8890 142.1840 85° East 523 602 33,000  Level FlightAware
05:35AM 36.8970 142.2890 85° East 523 602 33,000  Level FlightAware
05:35AM 36.9050 142.4080 85° East 523 602 33,000  Level FlightAware
05:36AM 36.9150 142.5530 85° East 524 603 33,000  Level FlightAware
05:37AM 36.9250 142.7150 86° East 524 603 33,000  Level FlightAware
05:37AM 36.9310 142.8010 85° East 525 604 33,000  Level FlightAware
05:38AM 36.9410 142.9510 85° East 525 604 33,000  Level FlightAware
05:39AM 36.9490 143.0810 86° East 524 603 33,000  Level FlightAware
05:39AM 36.9540 143.1530 85° East 518 596 33,000  Level FlightAware
05:41AM 36.9630 143.3270 86° East 517 595 33,000  Level FlightAware
05:42AM 36.9740 143.4870 85° East 516 594 33,000  Level FlightAware
05:42AM 36.9820 143.6260 86° East 784 902 33,000  Level FlightAware
05:43AM 36.9880 143.7280 86° East 517 595 33,000  Level FlightAware
05:44AM 36.9980 143.8800 85° East 517 595 33,000  Level FlightAware
05:44AM 37.0070 144.0250 86° East 520 598 33,000  Level FlightAware
05:45AM 37.0200 144.1320 81° East 522 601 33,000  Level FlightAware
05:45AM 37.0330 144.2370 81° East 525 604 33,000  Level FlightAware
05:46AM 37.0470 144.3560 82° East 527 606 33,000  Level FlightAware
05:47AM 37.0630 144.4900 81° East 530 610 33,000  Level FlightAware
05:47AM 37.0740 144.5800 81° East 532 612 33,000  Level FlightAware
05:48AM 37.0850 144.6840 82° East 532 612 33,000  Level FlightAware
05:49AM 37.0960 144.7770 82° East 532 612 33,000  Level FlightAware
05:49AM 37.1130 144.9160 81° East 536 617 33,000  Level FlightAware
05:50AM 37.1340 145.0990 82° East 535 616 33,000  Level FlightAware
05:51AM 37.1460 145.1990 81° East 534 615 33,000  Level FlightAware
05:51AM 37.1620 145.3480 82° East 535 616 33,000  Level FlightAware
05:52AM 37.1720 145.4360 82° East 537 618 33,000  Level FlightAware
05:53AM 37.1820 145.5300 82° East 537 618 33,000  Level FlightAware
05:54AM 37.1980 145.6690 82° East 537 618 33,000  Level FlightAware
05:54AM 37.2080 145.7580 82° East 537 618 33,000  Level FlightAware
05:55AM 37.2550 145.9190 70° East 33,000  Level FlightAware
05:55AM 37.2810 146.0300 74° East 535 616 33,000  Level FlightAware
05:56AM 37.3020 146.1250 74° East 535 616 33,000  Level FlightAware
05:57AM 37.3230 146.2160 74° East 535 616 33,000  Level FlightAware
05:57AM 37.3440 146.3080 74° East 535 616 33,000  Level FlightAware
05:58AM 37.3650 146.3990 74° East 535 616 33,000  Level FlightAware
05:58AM 37.3860 146.4910 74° East 535 616 33,000  Level FlightAware
05:59AM 37.4060 146.5830 75° East 535 616 33,000  Level FlightAware
06:00AM 37.4540 146.7910 74° East 535 616 33,000  Level FlightAware
06:01AM 37.4810 146.9090 74° East 535 616 33,000  Level FlightAware
06:02AM 37.5020 147.0000 74° East 535 616 33,000  Level FlightAware
06:02AM 37.5210 147.0870 75° East 535 616 33,000  Level FlightAware
06:03AM 37.5420 147.1790 74° East 535 616 33,000  Level FlightAware
06:04AM 37.5730 147.3140 74° East 535 616 33,000  Level FlightAware
06:05AM 37.6010 147.4390 74° East 535 616 33,000  Level FlightAware
06:07AM 37.6595 147.7750 78° East  Level FlightAware Approximate
06:08AM 37.6940 147.9478 75° East  Level FlightAware Approximate
06:09AM 37.7296 148.1202 75° East  Level FlightAware Approximate
06:10AM 37.7650 148.2927 75° East  Level FlightAware Approximate
06:11AM 37.8002 148.4653 76° East  Level FlightAware Approximate
06:12AM 37.8350 148.6382 76° East  Level FlightAware Approximate
06:13AM 37.8697 148.8112 76° East  Level FlightAware Approximate
06:14AM 37.9041 148.9843 76° East  Level FlightAware Approximate
06:15AM 37.9382 149.1576 76° East  Level FlightAware Approximate
06:16AM 37.9721 149.3311 76° East  Level FlightAware Approximate
06:17AM 38.0057 149.5047 76° East  Level FlightAware Approximate
06:18AM 38.0390 149.6785 76° East  Level FlightAware Approximate
06:19AM 38.0721 149.8524 76° East  Level FlightAware Approximate
06:20AM 38.1087 150.0250 66° East  Level FlightAware Approximate
06:21AM 38.1653 150.1891 66° East  Level FlightAware Approximate
06:22AM 38.2216 150.3534 66° East  Level FlightAware Approximate
06:23AM 38.2778 150.5180 66° East  Level FlightAware Approximate
06:24AM 38.3337 150.6828 67° East  Level FlightAware Approximate
06:25AM 38.3894 150.8479 67° East  Level FlightAware Approximate
06:26AM 38.4449 151.0132 67° East  Level FlightAware Approximate
06:27AM 38.5001 151.1788 67° East  Level FlightAware Approximate
06:28AM 38.5551 151.3447 67° East  Level FlightAware Approximate
06:29AM 38.6098 151.5108 67° East  Level FlightAware Approximate
06:30AM 38.6643 151.6771 67° East  Level FlightAware Approximate
06:31AM 38.7186 151.8437 67° East  Level FlightAware Approximate
06:32AM 38.7727 152.0106 67° East  Level FlightAware Approximate
06:33AM 38.8265 152.1777 67° East  Level FlightAware Approximate
06:34AM 38.8801 152.3451 68° East  Level FlightAware Approximate
06:35AM 38.9334 152.5127 68° East  Level FlightAware Approximate
06:36AM 38.9865 152.6806 68° East  Level FlightAware Approximate
06:37AM 39.0393 152.8487 68° East  Level FlightAware Approximate
06:38AM 39.0919 153.0170 68° East  Level FlightAware Approximate
06:39AM 39.1443 153.1857 68° East  Level FlightAware Approximate
06:40AM 39.1964 153.3545 68° East  Level FlightAware Approximate
06:41AM 39.2483 153.5237 68° East  Level FlightAware Approximate
06:42AM 39.2999 153.6930 68° East  Level FlightAware Approximate
06:43AM 39.3513 153.8627 69° East  Level FlightAware Approximate
06:44AM 39.4025 154.0325 69° East  Level FlightAware Approximate
06:45AM 39.4534 154.2026 69° East  Level FlightAware Approximate
06:46AM 39.5040 154.3730 69° East  Level FlightAware Approximate
06:47AM 39.5544 154.5436 69° East  Level FlightAware Approximate
06:48AM 39.6046 154.7145 69° East  Level FlightAware Approximate
06:49AM 39.6545 154.8856 69° East  Level FlightAware Approximate
06:50AM 39.7041 155.0569 69° East  Level FlightAware Approximate
06:51AM 39.7535 155.2285 69° East  Level FlightAware Approximate
06:52AM 39.8026 155.4004 70° East  Level FlightAware Approximate
06:53AM 39.8515 155.5725 70° East  Level FlightAware Approximate
06:54AM 39.9002 155.7448 70° East  Level FlightAware Approximate
06:55AM 39.9485 155.9174 70° East  Level FlightAware Approximate
06:56AM 39.9967 156.0902 70° East  Level FlightAware Approximate
06:57AM 40.0445 156.2633 70° East  Level FlightAware Approximate
06:58AM 40.0921 156.4366 70° East  Level FlightAware Approximate
06:59AM 40.1395 156.6102 70° East  Level FlightAware Approximate
07:00AM 40.1866 156.7840 70° East  Level FlightAware Approximate
07:01AM 40.2334 156.9580 71° East  Level FlightAware Approximate
07:02AM 40.2799 157.1323 71° East  Level FlightAware Approximate
07:03AM 40.3262 157.3068 71° East  Level FlightAware Approximate
07:04AM 40.3723 157.4815 71° East  Level FlightAware Approximate
07:05AM 40.4181 157.6565 71° East  Level FlightAware Approximate
07:06AM 40.4636 157.8318 71° East  Level FlightAware Approximate
07:07AM 40.5088 158.0072 71° East  Level FlightAware Approximate
07:08AM 40.5538 158.1829 71° East  Level FlightAware Approximate
07:09AM 40.5985 158.3589 71° East  Level FlightAware Approximate
07:10AM 40.6430 158.5350 72° East  Level FlightAware Approximate
07:11AM 40.6871 158.7114 72° East  Level FlightAware Approximate
07:12AM 40.7311 158.8881 72° East  Level FlightAware Approximate
07:13AM 40.7747 159.0650 72° East  Level FlightAware Approximate
07:14AM 40.8181 159.2421 72° East  Level FlightAware Approximate
07:15AM 40.8612 159.4194 72° East  Level FlightAware Approximate
07:16AM 40.9040 159.5970 72° East  Level FlightAware Approximate
07:17AM 40.9466 159.7747 72° East  Level FlightAware Approximate
07:18AM 40.9888 159.9528 72° East  Level FlightAware Approximate
07:19AM 41.0325 160.1303 72° East  Level FlightAware Approximate
07:20AM 41.0764 160.3079 72° East  Level FlightAware Approximate
07:21AM 41.1200 160.4857 72° East  Level FlightAware Approximate
07:22AM 41.1634 160.6637 72° East  Level FlightAware Approximate
07:23AM 41.2065 160.8420 72° East  Level FlightAware Approximate
07:24AM 41.2494 161.0205 72° East  Level FlightAware Approximate
07:25AM 41.2919 161.1992 72° East  Level FlightAware Approximate
07:26AM 41.3342 161.3782 72° East  Level FlightAware Approximate
07:27AM 41.3762 161.5574 73° East  Level FlightAware Approximate
07:28AM 41.4180 161.7368 73° East  Level FlightAware Approximate
07:29AM 41.4594 161.9164 73° East  Level FlightAware Approximate
07:30AM 41.5006 162.0963 73° East  Level FlightAware Approximate
07:31AM 41.5415 162.2764 73° East  Level FlightAware Approximate
07:32AM 41.5821 162.4568 73° East  Level FlightAware Approximate
07:33AM 41.6225 162.6373 73° East  Level FlightAware Approximate
07:34AM 41.6626 162.8181 73° East  Level FlightAware Approximate
07:35AM 41.7023 162.9991 74° East  Level FlightAware Approximate
07:36AM 41.7418 163.1803 74° East  Level FlightAware Approximate
07:37AM 41.7810 163.3618 74° East  Level FlightAware Approximate
07:38AM 41.8199 163.5435 74° East  Level FlightAware Approximate
07:39AM 41.8586 163.7254 74° East  Level FlightAware Approximate
07:40AM 41.8969 163.9075 74° East  Level FlightAware Approximate
07:41AM 41.9350 164.0898 74° East  Level FlightAware Approximate
07:42AM 41.9728 164.2724 74° East  Level FlightAware Approximate
07:43AM 42.0102 164.4551 75° East  Level FlightAware Approximate
07:44AM 42.0474 164.6381 75° East  Level FlightAware Approximate
07:45AM 42.0843 164.8213 75° East  Level FlightAware Approximate
07:46AM 42.1209 165.0047 75° East  Level FlightAware Approximate
07:46AM 42.1167 165.0000 75° East 503 579 35,000  Level Oakland Oceanic (ODAPS)
07:47AM 42.1575 165.1882 75° East  Level FlightAware Approximate
07:48AM 42.1937 165.3720 75° East  Level FlightAware Approximate
07:48AM 42.2000 165.4333 75° East 503 579 35,000  Level Oakland Oceanic (ODAPS)
07:49AM 42.2296 165.5559 75° East  Level FlightAware Approximate
07:50AM 42.2653 165.7401 75° East  Level FlightAware Approximate
07:51AM 42.3007 165.9245 75° East  Level FlightAware Approximate
07:52AM 42.3316 166.0987 76° East 503 579 35,000  Level FlightAware Transoceanic
07:53AM 42.3665 166.2825 76° East 503 579 35,000  Level FlightAware Transoceanic
07:54AM 42.4169 166.5638 76° East 503 579 35,000  Level FlightAware Transoceanic
07:54AM 42.4000 166.4333 76° East 523 602 35,000  Level Oakland Oceanic (ODAPS)
07:55AM 42.4520 166.7530 76° East 503 579 35,000  Level FlightAware Transoceanic
07:56AM 42.4868 166.9424 76° East 503 579 35,000  Level FlightAware Transoceanic
07:57AM 42.5212 167.1320 76° East 503 579 35,000  Level FlightAware Transoceanic
07:58AM 42.5554 167.3218 76° East 503 579 35,000  Level FlightAware Transoceanic
07:59AM 42.5892 167.5118 76° East 503 579 35,000  Level FlightAware Transoceanic
08:00AM 42.6014 167.5521 77° East 523 602 35,000  Level FlightAware Transoceanic
08:01AM 42.6339 167.7393 77° East 523 602 35,000  Level FlightAware Transoceanic
08:02AM 42.6661 167.9267 77° East 523 602 35,000  Level FlightAware Transoceanic
08:03AM 42.6980 168.1142 77° East 523 602 35,000  Level FlightAware Transoceanic
08:04AM 42.7296 168.3019 77° East 523 602 35,000  Level FlightAware Transoceanic
08:05AM 42.7609 168.4899 77° East 523 602 35,000  Level FlightAware Transoceanic
08:06AM 42.7919 168.6780 77° East 523 602 35,000  Level FlightAware Transoceanic
08:07AM 42.8225 168.8663 78° East 523 602 35,000  Level FlightAware Transoceanic
08:08AM 42.8529 169.0548 78° East 523 602 35,000 240 Level FlightAware Transoceanic
08:08AM 42.8500 169.0333 78° East 497 572 35,300 780 Climbing Oakland Oceanic (ODAPS)
08:08AM 42.8500 169.0667 77° East 497 572 35,600 -360 Climbing Oakland Oceanic (ODAPS)
08:09AM 42.8829 169.2435 78° East 523 602 35,000 -540 Descending FlightAware Transoceanic
08:10AM 42.9127 169.4323 78° East 523 602 35,000 840 Level FlightAware Transoceanic
08:10AM 42.9000 169.3667 78° East 501 577 36,000  Climbing Oakland Oceanic (ODAPS)
08:11AM 42.9421 169.6214 78° East 523 602 35,000  Descending FlightAware Transoceanic
08:11AM 42.9333 169.6167 77° East 540 621 36,000 1,140 Climbing Oakland Oceanic (ODAPS)
08:11AM 42.9500 169.6500 79° East 568 654 36,000 -2,160 Level Oakland Oceanic (ODAPS)
08:12AM 42.9712 169.8106 78° East 523 602 35,000 -900 Descending FlightAware Transoceanic
08:13AM 43.0000 170.0000 64° Northeast 523 602 35,000 480 Level FlightAware Transoceanic
08:13AM 43.0167 170.0667 64° Northeast 523 602 36,000 300 Climbing Oakland Oceanic (ODAPS)
08:14AM 43.0644 170.1790 64° Northeast 497 572 35,300 -420 Descending FlightAware Transoceanic
08:15AM 43.1286 170.3584 64° Northeast 497 572 35,600 660 Climbing FlightAware Transoceanic
08:15AM 43.0833 170.2333 64° Northeast 525 604 36,000 360 Climbing Oakland Oceanic (ODAPS)
08:16AM 43.1924 170.5382 64° Northeast 501 577 36,000  Level FlightAware Transoceanic
08:17AM 43.2560 170.7184 64° Northeast 540 621 36,000  Level FlightAware Transoceanic
08:18AM 43.3193 170.8989 64° Northeast 568 654 36,000  Level FlightAware Transoceanic
08:19AM 43.3823 171.0798 64° Northeast 568 654 36,000  Level FlightAware Transoceanic
08:19AM 43.3833 171.1000 64° Northeast 529 609 36,000  Level Oakland Oceanic (ODAPS)
08:20AM 43.3965 171.1396 64° Northeast 523 602 36,000  Level FlightAware Transoceanic
08:21AM 43.4613 171.3098 65° Northeast 525 604 36,000  Level FlightAware Transoceanic
08:22AM 43.5233 171.4905 65° Northeast 525 604 36,000  Level FlightAware Transoceanic
08:23AM 43.5850 171.6715 65° Northeast 525 604 36,000  Level FlightAware Transoceanic
08:24AM 43.6464 171.8530 65° Northeast 525 604 36,000  Level FlightAware Transoceanic
08:24AM 43.6667 171.9167 65° Northeast 538 619 36,000  Level Oakland Oceanic (ODAPS)
08:25AM 43.7076 172.0348 65° Northeast 525 604 36,000  Level FlightAware Transoceanic
08:26AM 43.7550 172.1909 65° Northeast 529 609 36,000  Level FlightAware Transoceanic
08:27AM 43.8159 172.3740 65° Northeast 529 609 36,000  Level FlightAware Transoceanic
08:28AM 43.8766 172.5575 65° Northeast 529 609 36,000  Level FlightAware Transoceanic
08:29AM 43.9369 172.7414 66° East 529 609 36,000  Level FlightAware Transoceanic
08:29AM 43.9167 172.6667 66° East 541 623 36,000  Level Oakland Oceanic (ODAPS)
08:30AM 43.9970 172.9256 66° East 529 609 36,000  Level FlightAware Transoceanic
08:31AM 44.0431 173.0583 66° East 538 619 36,000  Level FlightAware Transoceanic
08:32AM 44.1047 173.2500 66° East 538 619 36,000  Level FlightAware Transoceanic
08:33AM 44.1660 173.4420 66° East 538 619 36,000  Level FlightAware Transoceanic
08:34AM 44.2270 173.6345 66° East 538 619 36,000  Level FlightAware Transoceanic
08:35AM 44.2859 173.8193 66° East 541 623 36,000  Level FlightAware Transoceanic
08:36AM 44.3463 174.0128 66° East 541 623 36,000  Level FlightAware Transoceanic
08:37AM 44.4063 174.2068 67° East 541 623 36,000  Level FlightAware Transoceanic
08:38AM 44.4661 174.4011 67° East 541 623 36,000  Level FlightAware Transoceanic
08:39AM 44.5255 174.5958 67° East 541 623 36,000  Level FlightAware Transoceanic
08:40AM 44.5846 174.7909 67° East 541 623 36,000  Level FlightAware Transoceanic
08:41AM 44.6433 174.9863 67° East 541 623 36,000  Level FlightAware Transoceanic
08:42AM 44.7018 175.1822 67° East 541 623 36,000  Level FlightAware Transoceanic
08:43AM 44.7598 175.3785 67° East 541 623 36,000  Level FlightAware Transoceanic
08:43AM 44.7333 175.2667 67° East 520 598 36,000  Level Oakland Oceanic (ODAPS)
08:44AM 44.8176 175.5752 68° East 541 623 36,000  Level FlightAware Transoceanic
08:45AM 44.8750 175.7723 68° East 541 623 36,000  Level FlightAware Transoceanic
08:46AM 44.9321 175.9697 68° East 541 623 36,000  Level FlightAware Transoceanic
08:47AM 44.9888 176.1676 68° East 541 623 36,000  Level FlightAware Transoceanic
08:48AM 45.0452 176.3658 68° East 541 623 36,000  Level FlightAware Transoceanic
08:49AM 45.0550 176.3832 68° East 520 598 36,000  Level FlightAware Transoceanic
08:50AM 45.1076 176.5705 68° East 520 598 36,000  Level FlightAware Transoceanic
08:51AM 45.1598 176.7582 69° East 520 598 36,000  Level FlightAware Transoceanic
08:52AM 45.2118 176.9462 69° East 520 598 36,000  Level FlightAware Transoceanic
08:53AM 45.2634 177.1345 69° East 520 598 36,000  Level FlightAware Transoceanic
08:54AM 45.3147 177.3232 69° East 520 598 36,000  Level FlightAware Transoceanic
08:55AM 45.3657 177.5122 69° East 520 598 36,000  Level FlightAware Transoceanic
08:56AM 45.4164 177.7015 69° East 520 598 36,000 480 Level FlightAware Transoceanic
08:56AM 45.4667 177.8833 69° East 523 602 37,000  Climbing Oakland Oceanic (ODAPS)
08:57AM 45.4668 177.8912 69° East 520 598 36,000 -960 Descending FlightAware Transoceanic
08:58AM 45.5169 178.0813 69° East 520 598 36,000  Level FlightAware Transoceanic
08:59AM 45.5666 178.2716 70° East 520 598 36,000  Level FlightAware Transoceanic
09:00AM 45.6161 178.4624 70° East 520 598 36,000  Level FlightAware Transoceanic
09:01AM 45.6652 178.6534 70° East 520 598 36,000  Level FlightAware Transoceanic
09:02AM 45.7140 178.8448 70° East 520 598 36,000 480 Level FlightAware Transoceanic
09:03AM 45.7624 179.0329 70° East 523 602 37,000 480 Climbing FlightAware Transoceanic
09:04AM 45.8106 179.2256 70° East 523 602 37,000  Level FlightAware Transoceanic
09:05AM 45.8584 179.4187 70° East 523 602 37,000  Level FlightAware Transoceanic
09:06AM 45.9059 179.6122 71° East 523 602 37,000  Level FlightAware Transoceanic
09:07AM 45.9531 179.8059 71° East 523 602 37,000  Level FlightAware Transoceanic
09:07AM 46.0000 180.0000 78° East 522 601 37,000  Level Oakland Oceanic (ODAPS)
09:08AM 46.0000 -180.0000 78° East 523 602 37,000  Level FlightAware Transoceanic
09:09AM 46.0296 -179.7959 78° East 523 602 37,000  Level FlightAware Transoceanic
09:10AM 46.0589 -179.5916 78° East 523 602 37,000  Level FlightAware Transoceanic
09:10AM 46.0833 -179.4167 79° East 523 602 37,000  Level Oakland Oceanic (ODAPS)
09:11AM 46.0878 -179.3870 79° East 523 602 37,000  Level FlightAware Transoceanic
09:12AM 46.1163 -179.1823 79° East 523 602 37,000  Level FlightAware Transoceanic
09:13AM 46.1445 -178.9773 79° East 523 602 37,000  Level FlightAware Transoceanic
09:14AM 46.1722 -178.7721 79° East 522 601 37,000  Level FlightAware Transoceanic
09:15AM 46.1997 -178.5668 79° East 522 601 37,000  Level FlightAware Transoceanic
09:16AM 46.2267 -178.3612 79° East 522 601 37,000  Level FlightAware Transoceanic
09:17AM 46.2499 -178.1812 79° East 523 602 37,000  Level FlightAware Transoceanic
09:18AM 46.2763 -177.9746 80° East 523 602 37,000  Level FlightAware Transoceanic
09:19AM 46.3024 -177.7678 80° East 523 602 37,000  Level FlightAware Transoceanic
09:20AM 46.3281 -177.5608 80° East 523 602 37,000  Level FlightAware Transoceanic
09:21AM 46.3535 -177.3536 80° East 523 602 37,000  Level FlightAware Transoceanic
09:22AM 46.3784 -177.1462 80° East 523 602 37,000  Level FlightAware Transoceanic
09:23AM 46.4030 -176.9386 80° East 523 602 37,000  Level FlightAware Transoceanic
09:24AM 46.4272 -176.7308 80° East 523 602 37,000  Level FlightAware Transoceanic
09:24AM 46.4500 -176.6000 81° East 518 596 37,000  Level Oakland Oceanic (ODAPS)
09:25AM 46.4510 -176.5228 81° East 523 602 37,000  Level FlightAware Transoceanic
09:26AM 46.4745 -176.3147 81° East 523 602 37,000  Level FlightAware Transoceanic
09:27AM 46.4976 -176.1064 81° East 523 602 37,000  Level FlightAware Transoceanic
09:28AM 46.5203 -175.8979 81° East 523 602 37,000  Level FlightAware Transoceanic
09:29AM 46.5426 -175.6892 81° East 523 602 37,000  Level FlightAware Transoceanic
09:30AM 46.5645 -175.4804 81° East 523 602 37,000  Level FlightAware Transoceanic
09:31AM 46.5859 -175.3338 82° East 518 596 37,000  Level FlightAware Transoceanic
09:32AM 46.6073 -175.1221 82° East 518 596 37,000  Level FlightAware Transoceanic
09:33AM 46.6282 -174.9103 82° East 518 596 37,000  Level FlightAware Transoceanic
09:34AM 46.6487 -174.6984 82° East 518 596 37,000  Level FlightAware Transoceanic
09:35AM 46.6688 -174.4863 82° East 518 596 37,000  Level FlightAware Transoceanic
09:36AM 46.6885 -174.2740 82° East 518 596 37,000  Level FlightAware Transoceanic
09:37AM 46.7079 -174.0615 83° East 518 596 37,000  Level FlightAware Transoceanic
09:38AM 46.7268 -173.8490 83° East 518 596 37,000  Level FlightAware Transoceanic
09:38AM 46.7333 -173.7833 83° East 514 592 37,000  Level Oakland Oceanic (ODAPS)
09:39AM 46.7454 -173.6362 83° East 518 596 37,000  Level FlightAware Transoceanic
09:40AM 46.7635 -173.4233 83° East 518 596 37,000  Level FlightAware Transoceanic
09:41AM 46.7813 -173.2103 83° East 518 596 37,000  Level FlightAware Transoceanic
09:42AM 46.7986 -172.9971 83° East 518 596 37,000  Level FlightAware Transoceanic
09:43AM 46.8156 -172.7839 83° East 518 596 37,000  Level FlightAware Transoceanic
09:44AM 46.8310 -172.5928 84° East 514 592 37,000  Level FlightAware Transoceanic
09:45AM 46.8461 -172.3939 84° East 514 592 37,000  Level FlightAware Transoceanic
09:46AM 46.8608 -172.1950 84° East 514 592 37,000  Level FlightAware Transoceanic
09:47AM 46.8752 -171.9959 84° East 514 592 37,000  Level FlightAware Transoceanic
09:48AM 46.8892 -171.7968 84° East 514 592 37,000  Level FlightAware Transoceanic
09:49AM 46.9029 -171.5975 84° East 514 592 37,000  Level FlightAware Transoceanic
09:50AM 46.9163 -171.3981 84° East 514 592 37,000  Level FlightAware Transoceanic
09:51AM 46.9293 -171.1987 85° East 514 592 37,000  Level FlightAware Transoceanic
09:52AM 46.9419 -170.9991 85° East 514 592 37,000  Level FlightAware Transoceanic
09:52AM 46.9500 -170.9500 85° East 514 592 37,000  Level Oakland Oceanic (ODAPS)
09:53AM 46.9542 -170.7995 85° East 514 592 37,000  Level FlightAware Transoceanic
09:54AM 46.9662 -170.5997 85° East 514 592 37,000  Level FlightAware Transoceanic
09:55AM 46.9778 -170.3999 85° East 514 592 37,000  Level FlightAware Transoceanic
09:56AM 46.9891 -170.2000 85° East 514 592 37,000  Level FlightAware Transoceanic
09:57AM 47.0000 -170.0000 86° East 514 592 37,000  Level FlightAware Transoceanic
09:57AM 47.0000 -170.0000 86° East 519 597 37,000  Level Oakland Oceanic (ODAPS)
09:58AM 47.0089 -169.7922 86° East 514 592 37,000  Level FlightAware Transoceanic
09:59AM 47.0174 -169.5843 87° East 514 592 37,000  Level FlightAware Transoceanic
10:00AM 47.0255 -169.3764 87° East 514 592 37,000  Level FlightAware Transoceanic
10:01AM 47.0333 -169.1684 87° East 514 592 37,000  Level FlightAware Transoceanic
10:02AM 47.0406 -168.9603 87° East 514 592 37,000  Level FlightAware Transoceanic
10:03AM 47.0485 -168.7257 87° East 519 597 37,000  Level FlightAware Transoceanic
10:04AM 47.0552 -168.5131 87° East 519 597 37,000  Level FlightAware Transoceanic
10:05AM 47.0615 -168.3004 88° East 519 597 37,000  Level FlightAware Transoceanic
10:06AM 47.0674 -168.0877 88° East 519 597 37,000  Level FlightAware Transoceanic
10:06AM 47.0667 -168.0833 88° East 516 594 37,000  Level Oakland Oceanic (ODAPS)
10:07AM 47.0730 -167.8750 88° East 519 597 37,000  Level FlightAware Transoceanic
10:08AM 47.0781 -167.6622 88° East 519 597 37,000  Level FlightAware Transoceanic
10:09AM 47.0828 -167.4493 88° East 519 597 37,000  Level FlightAware Transoceanic
10:10AM 47.0872 -167.2365 88° East 519 597 37,000  Level FlightAware Transoceanic
10:11AM 47.0911 -167.0236 89° East 519 597 37,000  Level FlightAware Transoceanic
10:12AM 47.0935 -166.8397 89° East 516 594 37,000  Level FlightAware Transoceanic
10:13AM 47.0966 -166.6324 89° East 516 594 37,000  Level FlightAware Transoceanic
10:14AM 47.0994 -166.4250 89° East 516 594 37,000  Level FlightAware Transoceanic
10:15AM 47.1018 -166.2175 89° East 516 594 37,000  Level FlightAware Transoceanic
10:16AM 47.1038 -166.0101 89° East 516 594 37,000  Level FlightAware Transoceanic
10:17AM 47.1055 -165.8026 89° East 516 594 37,000  Level FlightAware Transoceanic
10:18AM 47.1068 -165.5952 90° East 516 594 37,000  Level FlightAware Transoceanic
10:19AM 47.1077 -165.3877 90° East 516 594 37,000  Level FlightAware Transoceanic
10:20AM 47.1082 -165.1802 90° East 516 594 37,000  Level FlightAware Transoceanic
10:20AM 47.1167 -165.2833 90° East 507 583 37,000  Level Oakland Oceanic (ODAPS)
10:21AM 47.1084 -164.9727 90° East 516 594 37,000  Level FlightAware Transoceanic
10:22AM 47.1082 -164.7653 90° East 516 594 37,000  Level FlightAware Transoceanic
10:23AM 47.1076 -164.5578 90° East 516 594 37,000  Level FlightAware Transoceanic
10:24AM 47.1066 -164.3503 90° East 516 594 37,000  Level FlightAware Transoceanic
10:25AM 47.1053 -164.1429 91° East 516 594 37,000  Level FlightAware Transoceanic
10:26AM 47.1113 -164.0624 91° East 507 583 37,000  Level FlightAware Transoceanic
10:27AM 47.1092 -163.8590 91° East 507 583 37,000  Level FlightAware Transoceanic
10:28AM 47.1067 -163.6556 91° East 507 583 37,000  Level FlightAware Transoceanic
10:29AM 47.1038 -163.4521 91° East 507 583 37,000  Level FlightAware Transoceanic
10:30AM 47.1006 -163.2488 91° East 507 583 37,000  Level FlightAware Transoceanic
10:31AM 47.0970 -163.0454 92° East 507 583 37,000  Level FlightAware Transoceanic
10:32AM 47.0930 -162.8421 92° East 507 583 37,000  Level FlightAware Transoceanic
10:33AM 47.0887 -162.6388 92° East 507 583 37,000  Level FlightAware Transoceanic
10:34AM 47.0840 -162.4355 92° East 507 583 37,000  Level FlightAware Transoceanic
10:34AM 47.0833 -162.5000 92° East 507 583 37,000  Level Oakland Oceanic (ODAPS)
10:35AM 47.0790 -162.2323 92° East 507 583 37,000  Level FlightAware Transoceanic
10:36AM 47.0736 -162.0291 92° East 507 583 37,000  Level FlightAware Transoceanic
10:37AM 47.0679 -161.8259 92° East 507 583 37,000  Level FlightAware Transoceanic
10:38AM 47.0618 -161.6228 93° East 507 583 37,000  Level FlightAware Transoceanic
10:39AM 47.0553 -161.4198 93° East 507 583 37,000  Level FlightAware Transoceanic
10:40AM 47.0485 -161.2490 93° East 507 583 37,000  Level FlightAware Transoceanic
10:41AM 47.0413 -161.0407 93° East 507 583 37,000  Level FlightAware Transoceanic
10:42AM 47.0338 -160.8324 93° East 507 583 37,000  Level FlightAware Transoceanic
10:43AM 47.0259 -160.6242 93° East 507 583 37,000  Level FlightAware Transoceanic
10:44AM 47.0177 -160.4161 93° East 507 583 37,000  Level FlightAware Transoceanic
10:45AM 47.0090 -160.2080 94° East 507 583 37,000  Level FlightAware Transoceanic
10:46AM 47.0000 -160.0000 95° East 507 583 37,000  Level FlightAware Transoceanic
10:46AM 47.0000 -160.0000 95° East 513 590 37,000  Level Oakland Oceanic (ODAPS)
10:47AM 46.9882 -159.7884 95° East 507 583 37,000  Level FlightAware Transoceanic
10:47AM 46.9833 -159.6833 95° East 513 590 37,000  Level Oakland Oceanic (ODAPS)
10:48AM 46.9759 -159.5769 95° East 507 583 37,000  Level FlightAware Transoceanic
10:49AM 46.9633 -159.3655 95° East 507 583 37,000  Level FlightAware Transoceanic
10:50AM 46.9503 -159.1542 95° East 507 583 37,000  Level FlightAware Transoceanic
10:51AM 46.9369 -158.9430 95° East 507 583 37,000  Level FlightAware Transoceanic
10:52AM 46.9248 -158.7578 96° East 513 590 37,000  Level FlightAware Transoceanic
10:53AM 46.9110 -158.5511 96° East 513 590 37,000  Level FlightAware Transoceanic
10:54AM 46.9037 -158.4295 96° East 513 590 37,000  Level FlightAware Transoceanic
10:55AM 46.8891 -158.2209 96° East 513 590 37,000  Level FlightAware Transoceanic
10:56AM 46.8741 -158.0124 96° East 513 590 37,000  Level FlightAware Transoceanic
10:57AM 46.8588 -157.8041 96° East 513 590 37,000  Level FlightAware Transoceanic
10:58AM 46.8431 -157.5958 96° East 513 590 37,000  Level FlightAware Transoceanic
10:59AM 46.8270 -157.3877 97° East 513 590 37,000  Level FlightAware Transoceanic
11:00AM 46.8105 -157.1797 97° East 513 590 37,000  Level FlightAware Transoceanic
11:01AM 46.7936 -156.9719 97° East 513 590 37,000  Level FlightAware Transoceanic
11:01AM 46.7833 -156.8833 97° East 511 588 37,000  Level Oakland Oceanic (ODAPS)
11:02AM 46.7764 -156.7641 97° East 513 590 37,000  Level FlightAware Transoceanic
11:03AM 46.7587 -156.5565 97° East 513 590 37,000  Level FlightAware Transoceanic
11:04AM 46.7407 -156.3491 97° East 513 590 37,000  Level FlightAware Transoceanic
11:05AM 46.7224 -156.1418 97° East 513 590 37,000  Level FlightAware Transoceanic
11:06AM 46.7037 -155.9346 98° East 513 590 37,000  Level FlightAware Transoceanic
11:07AM 46.6845 -155.7276 98° East 513 590 37,000  Level FlightAware Transoceanic
11:08AM 46.6753 -155.6550 98° East 511 588 37,000  Level FlightAware Transoceanic
11:09AM 46.6560 -155.4508 98° East 511 588 37,000  Level FlightAware Transoceanic
11:10AM 46.6364 -155.2467 98° East 511 588 37,000  Level FlightAware Transoceanic
11:11AM 46.6164 -155.0427 98° East 511 588 37,000  Level FlightAware Transoceanic
11:12AM 46.5960 -154.8390 98° East 511 588 37,000  Level FlightAware Transoceanic
11:13AM 46.5753 -154.6353 99° East 511 588 37,000  Level FlightAware Transoceanic
11:14AM 46.5542 -154.4319 99° East 511 588 37,000  Level FlightAware Transoceanic
11:15AM 46.5327 -154.2285 99° East 511 588 37,000  Level FlightAware Transoceanic
11:15AM 46.5167 -154.1000 99° East 509 586 37,000  Level Oakland Oceanic (ODAPS)
11:16AM 46.5109 -154.0254 99° East 511 588 37,000  Level FlightAware Transoceanic
11:17AM 46.4887 -153.8224 99° East 511 588 37,000  Level FlightAware Transoceanic
11:18AM 46.4662 -153.6196 99° East 511 588 37,000  Level FlightAware Transoceanic
11:19AM 46.4433 -153.4169 99° East 511 588 37,000  Level FlightAware Transoceanic
11:20AM 46.4201 -153.2145 100° East 511 588 37,000  Level FlightAware Transoceanic
11:21AM 46.3840 -152.9208 100° East 509 586 37,000  Level FlightAware Transoceanic
11:22AM 46.3608 -152.7249 100° East 509 586 37,000  Level FlightAware Transoceanic
11:23AM 46.3372 -152.5291 100° East 509 586 37,000  Level FlightAware Transoceanic
11:24AM 46.3132 -152.3335 100° East 509 586 37,000  Level FlightAware Transoceanic
11:25AM 46.2889 -152.1380 100° East 509 586 37,000  Level FlightAware Transoceanic
11:26AM 46.2643 -151.9427 100° East 509 586 37,000  Level FlightAware Transoceanic
11:27AM 46.2394 -151.7476 101° East 509 586 37,000  Level FlightAware Transoceanic
11:28AM 46.2141 -151.5527 101° East 509 586 37,000  Level FlightAware Transoceanic
11:29AM 46.1885 -151.3580 101° East 509 586 37,000  Level FlightAware Transoceanic
11:29AM 46.1833 -151.3167 101° East 518 596 37,000  Level Oakland Oceanic (ODAPS)
11:30AM 46.1625 -151.1634 101° East 509 586 37,000  Level FlightAware Transoceanic
11:31AM 46.1363 -150.9690 101° East 509 586 37,000  Level FlightAware Transoceanic
11:32AM 46.1097 -150.7748 101° East 509 586 37,000  Level FlightAware Transoceanic
11:33AM 46.0827 -150.5808 101° East 509 586 37,000  Level FlightAware Transoceanic
11:34AM 46.0555 -150.3870 102° East 509 586 37,000  Level FlightAware Transoceanic
11:35AM 46.0271 -150.1875 102° East 518 596 37,000  Level FlightAware Transoceanic
11:36AM 46.0000 -150.0000 102° East 518 596 37,000  Level FlightAware Transoceanic
11:36AM 46.0000 -150.0000 102° East 511 588 37,000  Level Oakland Oceanic (ODAPS)
11:37AM 45.9700 -149.8014 102° East 518 596 37,000  Level FlightAware Transoceanic
11:38AM 45.9396 -149.6031 102° East 518 596 37,000  Level FlightAware Transoceanic
11:39AM 45.9088 -149.4050 103° East 518 596 37,000  Level FlightAware Transoceanic
11:40AM 45.8778 -149.2070 103° East 518 596 37,000  Level FlightAware Transoceanic
11:41AM 45.8463 -149.0094 103° East 518 596 37,000  Level FlightAware Transoceanic
11:42AM 45.8146 -148.8119 103° East 511 588 37,000  Level FlightAware Transoceanic
11:43AM 45.7825 -148.6147 103° East 511 588 37,000  Level FlightAware Transoceanic
11:43AM 45.7667 -148.5333 103° East 508 585 37,000  Level Oakland Oceanic (ODAPS)
11:44AM 45.7501 -148.4176 103° East 511 588 37,000  Level FlightAware Transoceanic
11:45AM 45.7173 -148.2209 103° East 511 588 37,000  Level FlightAware Transoceanic
11:46AM 45.6842 -148.0243 104° East 511 588 37,000  Level FlightAware Transoceanic
11:47AM 45.6507 -147.8280 104° East 511 588 37,000  Level FlightAware Transoceanic
11:48AM 45.6170 -147.6319 104° East 511 588 37,000  Level FlightAware Transoceanic
11:49AM 45.5684 -147.3661 104° East 508 585 37,000  Level FlightAware Transoceanic
11:50AM 45.5342 -147.1724 104° East 508 585 37,000  Level FlightAware Transoceanic
11:51AM 45.4997 -146.9789 104° East 508 585 37,000  Level FlightAware Transoceanic
11:52AM 45.4648 -146.7857 104° East 508 585 37,000  Level FlightAware Transoceanic
11:53AM 45.4296 -146.5927 105° East 508 585 37,000  Level FlightAware Transoceanic
11:54AM 45.3941 -146.3999 105° East 508 585 37,000  Level FlightAware Transoceanic
11:55AM 45.3583 -146.2074 105° East 508 585 37,000  Level FlightAware Transoceanic
11:56AM 45.3222 -146.0151 105° East 508 585 37,000  Level FlightAware Transoceanic
11:57AM 45.2857 -145.8231 105° East 508 585 37,000  Level FlightAware Transoceanic
11:58AM 45.2489 -145.6313 105° East 508 585 37,000  Level FlightAware Transoceanic
11:59AM 45.2118 -145.4398 105° East 508 585 37,000  Level FlightAware Transoceanic
12:00PM 45.1744 -145.2485 106° East 508 585 37,000  Level FlightAware Transoceanic
12:01PM 45.1366 -145.0575 106° East 508 585 37,000  Level FlightAware Transoceanic
12:02PM 45.0985 -144.8667 106° East 508 585 37,000  Level FlightAware Transoceanic
12:03PM 45.0602 -144.6762 106° East 508 585 37,000  Level FlightAware Transoceanic
12:04PM 45.0215 -144.4859 106° East 508 585 37,000  Level FlightAware Transoceanic
12:05PM 44.9824 -144.2959 106° East 508 585 37,000  Level FlightAware Transoceanic
12:06PM 44.9431 -144.1062 106° East 508 585 37,000  Level FlightAware Transoceanic
12:07PM 44.9035 -143.9167 107° East 508 585 37,000  Level FlightAware Transoceanic
12:08PM 44.8635 -143.7275 107° East 508 585 37,000  Level FlightAware Transoceanic
12:09PM 44.8232 -143.5385 107° East 508 585 37,000  Level FlightAware Transoceanic
12:10PM 44.7827 -143.3498 107° East 508 585 37,000  Level FlightAware Transoceanic
12:11PM 44.7418 -143.1614 107° East 508 585 37,000 900 Level FlightAware Transoceanic
12:11PM 44.7500 -143.1833 107° East 503 579 38,000  Climbing Oakland Oceanic (ODAPS)
12:12PM 44.7006 -142.9732 107° East 508 585 37,000 -540 Descending FlightAware Transoceanic
12:13PM 44.6591 -142.7854 107° East 508 585 37,000  Level FlightAware Transoceanic
12:14PM 44.6172 -142.5977 107° East 508 585 37,000  Level FlightAware Transoceanic
12:15PM 44.5751 -142.4104 108° East 508 585 37,000  Level FlightAware Transoceanic
12:16PM 44.5327 -142.2233 108° East 508 585 37,000 480 Level FlightAware Transoceanic
12:17PM 44.4954 -142.0505 108° East 503 579 38,000 480 Climbing FlightAware Transoceanic
12:18PM 44.4519 -141.8627 108° East 503 579 38,000  Level FlightAware Transoceanic
12:19PM 44.4081 -141.6751 108° East 503 579 38,000  Level FlightAware Transoceanic
12:20PM 44.3639 -141.4879 108° East 503 579 38,000  Level FlightAware Transoceanic
12:21PM 44.3195 -141.3009 108° East 503 579 38,000  Level FlightAware Transoceanic
12:22PM 44.2748 -141.1142 109° East 503 579 38,000  Level FlightAware Transoceanic
12:23PM 44.2297 -140.9278 109° East 503 579 38,000  Level FlightAware Transoceanic
12:24PM 44.1844 -140.7416 109° East 503 579 38,000  Level FlightAware Transoceanic
12:24PM 44.1667 -140.6667 109° East 493 567 38,000  Level Oakland Oceanic (ODAPS)
12:25PM 44.1387 -140.5558 109° East 503 579 38,000  Level FlightAware Transoceanic
12:26PM 44.0928 -140.3702 109° East 503 579 38,000  Level FlightAware Transoceanic
12:27PM 44.0466 -140.1850 109° East 503 579 38,000  Level FlightAware Transoceanic
12:28PM 44.0000 -140.0000 109° East 503 579 38,000  Level FlightAware Transoceanic
12:28PM 44.0000 -140.0000 109° East 490 564 38,000  Level Oakland Oceanic (ODAPS)
12:29PM 43.9566 -139.8226 109° East 503 579 38,000  Level FlightAware Transoceanic
12:30PM 43.9130 -139.6455 109° East 503 579 38,000  Level FlightAware Transoceanic
12:31PM 43.9115 -139.6394 109° East 493 567 38,000  Level FlightAware Transoceanic
12:32PM 43.8668 -139.4595 109° East 493 567 38,000  Level FlightAware Transoceanic
12:33PM 43.8218 -139.2799 109° East 493 567 38,000  Level FlightAware Transoceanic
12:34PM 43.7766 -139.1006 109° East 493 567 38,000  Level FlightAware Transoceanic
12:35PM 43.7311 -138.9215 109° East 490 564 38,000  Level FlightAware Transoceanic
12:36PM 43.6853 -138.7427 110° East 490 564 38,000  Level FlightAware Transoceanic
12:37PM 43.6392 -138.5642 110° East 490 564 38,000  Level FlightAware Transoceanic
12:38PM 43.5928 -138.3860 110° East 490 564 38,000 540 Level FlightAware Transoceanic
12:38PM 43.5500 -138.2500 110° East 489 563 39,000  Climbing Oakland Oceanic (ODAPS)
12:39PM 43.5462 -138.2080 110° East 490 564 38,000 -900 Descending FlightAware Transoceanic
12:40PM 43.4993 -138.0303 110° East 490 564 38,000  Level FlightAware Transoceanic
12:41PM 43.4521 -137.8529 110° East 490 564 38,000  Level FlightAware Transoceanic
12:42PM 43.4046 -137.6757 110° East 490 564 38,000  Level FlightAware Transoceanic
12:43PM 43.3569 -137.4989 110° East 490 564 38,000  Level FlightAware Transoceanic
12:44PM 43.3089 -137.3223 111° Southeast 490 564 38,000 480 Level FlightAware Transoceanic
12:45PM 43.2643 -137.1825 111° Southeast 489 563 39,000 480 Climbing FlightAware Transoceanic
12:46PM 43.2157 -137.0056 111° Southeast 489 563 39,000  Level FlightAware Transoceanic
12:47PM 43.1669 -136.8289 111° Southeast 489 563 39,000  Level FlightAware Transoceanic
12:48PM 43.1177 -136.6526 111° Southeast 489 563 39,000  Level FlightAware Transoceanic
12:49PM 43.0683 -136.4765 111° Southeast 489 563 39,000  Level FlightAware Transoceanic
12:50PM 43.0187 -136.3007 111° Southeast 489 563 39,000  Level FlightAware Transoceanic
12:51PM 42.9688 -136.1252 111° Southeast 489 563 39,000  Level FlightAware Transoceanic
12:52PM 42.9185 -135.9499 111° Southeast 489 563 39,000  Level FlightAware Transoceanic
12:52PM 42.8833 -135.8333 111° Southeast 495 570 39,000  Level Oakland Oceanic (ODAPS)
12:53PM 42.8681 -135.7750 112° Southeast 489 563 39,000  Level FlightAware Transoceanic
12:54PM 42.8173 -135.6003 112° Southeast 489 563 39,000  Level FlightAware Transoceanic
12:55PM 42.7664 -135.4259 112° Southeast 489 563 39,000  Level FlightAware Transoceanic
12:56PM 42.7151 -135.2519 112° Southeast 489 563 39,000  Level FlightAware Transoceanic
12:57PM 42.6636 -135.0781 112° Southeast 489 563 39,000  Level FlightAware Transoceanic
12:58PM 42.6118 -134.9046 112° Southeast 489 563 39,000  Level FlightAware Transoceanic
12:59PM 42.5727 -134.7790 112° Southeast 495 570 39,000  Level FlightAware Transoceanic
01:00PM 42.5200 -134.6043 112° Southeast 495 570 39,000  Level FlightAware Transoceanic
01:01PM 42.4671 -134.4299 112° Southeast 495 570 39,000  Level FlightAware Transoceanic
01:02PM 42.4138 -134.2557 113° Southeast 495 570 39,000  Level FlightAware Transoceanic
01:03PM 42.3603 -134.0819 113° Southeast 495 570 39,000  Level FlightAware Transoceanic
01:04PM 42.3066 -133.9084 113° Southeast 495 570 39,000  Level FlightAware Transoceanic
01:05PM 42.2526 -133.7352 113° Southeast 495 570 39,000  Level FlightAware Transoceanic
01:06PM 42.1983 -133.5623 113° Southeast 495 570 39,000  Level FlightAware Transoceanic
01:06PM 42.1833 -133.4833 113° Southeast 487 560 39,000  Level Oakland Oceanic (ODAPS)
01:07PM 42.1437 -133.3896 113° Southeast 495 570 39,000  Level FlightAware Transoceanic
01:08PM 42.0890 -133.2173 113° Southeast 495 570 39,000  Level FlightAware Transoceanic
01:09PM 42.0339 -133.0453 113° Southeast 495 570 39,000  Level FlightAware Transoceanic
01:10PM 41.9786 -132.8736 113° Southeast 495 570 39,000  Level FlightAware Transoceanic
01:11PM 41.9230 -132.7021 114° Southeast 495 570 39,000  Level FlightAware Transoceanic
01:12PM 41.8672 -132.5310 114° Southeast 495 570 39,000  Level FlightAware Transoceanic
01:13PM 41.8183 -132.3611 114° Southeast 487 560 39,000  Level FlightAware Transoceanic
01:14PM 41.7652 -132.2019 114° Southeast 487 560 39,000  Level FlightAware Transoceanic
01:15PM 41.7120 -132.0429 114° Southeast 487 560 39,000  Level FlightAware Transoceanic
01:16PM 41.6585 -131.8842 114° Southeast 487 560 39,000  Level FlightAware Transoceanic
01:17PM 41.6048 -131.7257 114° Southeast 487 560 39,000  Level FlightAware Transoceanic
01:18PM 41.5509 -131.5675 115° Southeast 487 560 39,000  Level FlightAware Transoceanic
01:19PM 41.4968 -131.4095 115° Southeast 487 560 39,000  Level FlightAware Transoceanic
01:20PM 41.4424 -131.2519 115° Southeast 487 560 39,000  Level FlightAware Transoceanic
01:20PM 41.4333 -131.2333 115° Southeast 484 557 39,000  Level Oakland Oceanic (ODAPS)
01:21PM 41.3879 -131.0945 115° Southeast 487 560 39,000  Level FlightAware Transoceanic
01:22PM 41.3331 -130.9373 115° Southeast 487 560 39,000  Level FlightAware Transoceanic
01:23PM 41.2781 -130.7804 115° Southeast 487 560 39,000  Level FlightAware Transoceanic
01:24PM 41.2229 -130.6238 115° Southeast 487 560 39,000  Level FlightAware Transoceanic
01:25PM 41.1675 -130.4675 115° Southeast 487 560 39,000  Level FlightAware Transoceanic
01:26PM 41.1096 -130.3068 115° Southeast 484 557 39,000  Level FlightAware Transoceanic
01:27PM 41.0549 -130.1533 115° Southeast 484 557 39,000  Level FlightAware Transoceanic
01:28PM 41.0000 -130.0000 109° East 484 557 39,000  Level FlightAware Transoceanic
01:28PM 41.0000 -130.0000 109° East 484 557 39,000  Level Oakland Oceanic (ODAPS)
01:29PM 40.9548 -129.8313 110° East 484 557 39,000  Level FlightAware Transoceanic
01:30PM 40.9094 -129.6629 110° East 484 557 39,000  Level FlightAware Transoceanic
01:31PM 40.8638 -129.4947 110° East 484 557 39,000  Level FlightAware Transoceanic
01:32PM 40.8178 -129.3268 110° East 484 557 39,000  Level FlightAware Transoceanic
01:33PM 40.7717 -129.1590 110° East 484 557 39,000  Level FlightAware Transoceanic
01:34PM 40.7253 -128.9915 110° East 484 557 39,000  Level FlightAware Transoceanic
01:34PM 40.7167 -128.9667 110° East 488 562 39,000  Level Oakland Oceanic (ODAPS)
01:35PM 40.6787 -128.8243 110° East 484 557 39,000  Level FlightAware Transoceanic
01:36PM 40.6318 -128.6573 110° East 484 557 39,000  Level FlightAware Transoceanic
01:37PM 40.5847 -128.4905 110° East 484 557 39,000  Level FlightAware Transoceanic
01:38PM 40.5373 -128.3239 111° Southeast 484 557 39,000  Level FlightAware Transoceanic
01:39PM 40.4898 -128.1576 111° Southeast 484 557 39,000  Level FlightAware Transoceanic
01:40PM 40.4375 -127.9792 111° Southeast 488 562 39,000  Level FlightAware Transoceanic
01:41PM 40.3902 -127.8154 111° Southeast 488 562 39,000  Level FlightAware Transoceanic
01:42PM 40.3426 -127.6519 111° Southeast 488 562 39,000  Level FlightAware Transoceanic
01:43PM 40.2948 -127.4885 111° Southeast 488 562 39,000  Level FlightAware Transoceanic
01:44PM 40.2467 -127.3255 111° Southeast 488 562 39,000  Level FlightAware Transoceanic
01:45PM 40.1985 -127.1626 111° Southeast 488 562 39,000  Level FlightAware Transoceanic
01:46PM 40.1500 -127.0000 110° East 488 562 39,000  Level FlightAware Transoceanic
01:47PM 40.1047 -126.8352 110° East 488 562 39,000  Level FlightAware Transoceanic
01:48PM 40.0591 -126.6707 110° East 488 562 39,000  Level FlightAware Transoceanic
01:49PM 40.0134 -126.5063 110° East 488 562 39,000  Level FlightAware Transoceanic
01:50PM 39.9674 -126.3422 110° East 488 562 39,000  Level FlightAware Transoceanic
01:51PM 39.9211 -126.1784 110° East 488 562 39,000  Level FlightAware Transoceanic
01:51PM 39.9170 -126.1590 110° East 39,000  Level FlightAware
01:52PM 39.8890 -126.0610 110° East 479 551 39,000  Level FlightAware
01:52PM 39.8700 -125.9950 111° Southeast 478 550 39,000  Level FlightAware
01:53PM 39.8430 -125.8980 110° East 479 551 39,000  Level FlightAware
01:53PM 39.8130 -125.7960 111° Southeast 478 550 39,000  Level FlightAware
01:54PM 39.7900 -125.7080 109° East 478 550 39,000  Level FlightAware
01:55PM 39.7550 -125.5920 111° Southeast 480 552 39,000  Level FlightAware
01:55PM 39.7140 -125.4530 111° Southeast 480 552 39,000  Level FlightAware
01:56PM 39.6830 -125.3450 110° East 479 551 39,000  Level FlightAware
01:57PM 39.6550 -125.2490 111° Southeast 479 551 39,000  Level FlightAware
01:57PM 39.6250 -125.1490 111° Southeast 479 551 39,000  Level FlightAware
01:58PM 39.5990 -125.0620 111° Southeast 479 551 39,000  Level FlightAware
01:58PM 39.5670 -124.9540 111° Southeast 479 551 39,000  Level FlightAware
01:59PM 39.5450 -124.8780 111° Southeast 478 550 39,000  Level FlightAware
01:59PM 39.5150 -124.7780 111° Southeast 478 550 39,000  Level FlightAware
02:00PM 39.4880 -124.6870 111° Southeast 477 549 39,000  Level FlightAware
02:01PM 39.4590 -124.5910 111° Southeast 477 549 39,000  Level FlightAware
02:01PM 39.4310 -124.4970 111° Southeast 476 548 39,000  Level FlightAware
02:02PM 39.4020 -124.4030 112° Southeast 475 547 39,000  Level FlightAware
02:02PM 39.3750 -124.3130 111° Southeast 475 547 39,000  Level FlightAware
02:03PM 39.3500 -124.2310 111° Southeast 479 551 39,000  Level FlightAware
02:04PM 39.3250 -124.1500 112° Southeast 480 552 39,000 -240 Level FlightAware
02:04PM 39.2990 -124.0640 111° Southeast 479 551 38,800 -1,320 Descending FlightAware
02:05PM 39.2590 -123.9330 111° Southeast 466 536 37,200 -2,460 Descending FlightAware
02:06PM 39.2190 -123.8040 112° Southeast 468 539 34,900 -3,900 Descending FlightAware
02:06PM 39.1860 -123.7000 112° Southeast 489 563 32,300 -3,900 Descending FlightAware
02:07PM 39.1550 -123.6000 112° Southeast 490 564 30,500 -2,220 Descending FlightAware
02:07PM 39.1260 -123.5060 112° Southeast 469 540 29,700 -1,620 Descending FlightAware
02:08PM 39.0980 -123.4160 112° Southeast 464 534 28,600 -1,680 Descending FlightAware
02:09PM 39.0700 -123.3320 113° Southeast 452 520 27,800 -1,440 Descending FlightAware
02:09PM 39.0490 -123.2960 127° Southeast 439 505 27,400 -1,200 Descending FlightAware
02:09PM 39.0320 -123.2760 138° Southeast 429 494 27,200 -1,320 Descending FlightAware
02:09PM 39.0030 -123.2540 149° Southeast 418 481 26,800 -1,500 Descending FlightAware
02:10PM 38.9450 -123.2280 161° South 411 473 26,000 -1,500 Descending FlightAware
02:10PM 38.8820 -123.2010 162° South 409 471 25,100 -1,500 Descending FlightAware
02:11PM 38.8230 -123.1770 162° South 405 466 24,300 -1,560 Descending FlightAware
02:12PM 38.7550 -123.1490 162° South 402 463 23,300 -1,500 Descending FlightAware
02:12PM 38.6960 -123.1240 162° South 400 460 22,500 -1,500 Descending FlightAware
02:13PM 38.6310 -123.0970 162° South 399 459 21,600 -1,500 Descending FlightAware
02:13PM 38.5740 -123.0730 162° South 396 456 20,800 -1,500 Descending FlightAware
02:14PM 38.5110 -123.0460 161° South 391 450 19,900 -1,440 Descending FlightAware
02:15PM 38.4500 -123.0210 162° South 386 444 19,100 -1,320 Descending FlightAware
02:15PM 38.3920 -122.9970 162° South 382 440 18,400 -1,320 Descending FlightAware
02:16PM 38.3320 -122.9720 162° South 378 435 17,600 -1,380 Descending FlightAware
02:16PM 38.2800 -122.9510 162° South 375 432 16,900 -1,500 Descending FlightAware
02:17PM 38.2190 -122.9250 161° South 373 429 15,900 -1,440 Descending FlightAware
02:17PM 38.1620 -122.9020 162° South 368 423 15,200 -1,320 Descending FlightAware
02:18PM 38.1030 -122.8770 162° South 361 415 14,400 -1,680 Descending FlightAware
02:19PM 38.0520 -122.8390 150° Southeast 363 418 13,200 -2,040 Descending FlightAware
02:19PM 38.0060 -122.7890 139° Southeast 361 415 12,000 -1,680 Descending FlightAware
02:20PM 37.9660 -122.7450 139° Southeast 345 397 11,300 -900 Descending FlightAware
02:20PM 37.9240 -122.7000 140° Southeast 319 367 11,000 -480 Descending FlightAware
02:21PM 37.8870 -122.6600 140° Southeast 295 339 10,800 -180 Descending FlightAware
02:22PM 37.8510 -122.6210 139° Southeast 292 336 10,800  Level FlightAware
02:22PM 37.8292 -122.5980 140° Southeast 292 336 10,800  Level FlightAware ADS-B
02:23PM 37.7790 -122.5440 140° Southeast 274 315 10,800  Level FlightAware
02:23PM 37.7711 -122.5360 141° Southeast 267 307 10,800  Level FlightAware ADS-B
02:24PM 37.7216 -122.4830 140° Southeast 257 296 10,800  Level FlightAware ADS-B
02:24PM 37.6840 -122.4430 140° Southeast 256 295 10,800  Level FlightAware
02:25PM 37.6688 -122.4260 138° Southeast 257 296 10,800  Level FlightAware ADS-B
02:25PM 37.6385 -122.3940 140° Southeast 257 296 10,800  Level FlightAware ADS-B
02:26PM 37.6142 -122.3680 140° Southeast 259 298 10,800  Level FlightAware ADS-B
02:26PM 37.5840 -122.3450 149° Southeast 255 293 10,800  Level FlightAware
02:26PM 37.5742 -122.3380 150° Southeast 255 293 10,800 -660 Level FlightAware ADS-B
02:27PM 37.5442 -122.3180 152° Southeast 253 291 10,400 -960 Descending FlightAware ADS-B
02:27PM 37.5233 -122.3050 154° Southeast 252 290 10,000 -1,140 Descending FlightAware ADS-B
02:27PM 37.5060 -122.2930 151° Southeast 250 288 9,700 -1,200 Descending FlightAware ADS-B
02:28PM 37.4852 -122.2800 154° Southeast 250 288 9,300 -1,200 Descending FlightAware ADS-B
02:28PM 37.4649 -122.2670 153° Southeast 248 285 8,900 -1,140 Descending FlightAware ADS-B
02:28PM 37.4481 -122.2560 153° Southeast 248 285 8,600 -960 Descending FlightAware ADS-B
02:29PM 37.4326 -122.2460 153° Southeast 246 283 8,400 -780 Descending FlightAware ADS-B
02:29PM 37.4162 -122.2360 154° Southeast 239 275 8,200 -780 Descending FlightAware ADS-B
02:29PM 37.4085 -122.2310 153° Southeast 234 269 8,100 -540 Descending FlightAware ADS-B
02:29PM 37.4047 -122.2290 157° South 232 267 8,100  Level FlightAware ADS-B
02:29PM 37.4017 -122.2280 165° South 229 264 8,100 -780 Level FlightAware ADS-B
02:29PM 37.3965 -122.2270 171° South 225 259 8,000 -1,380 Descending FlightAware ADS-B
02:29PM 37.3916 -122.2270 180° South 222 255 7,900 -780 Descending FlightAware ADS-B
02:29PM 37.3878 -122.2270 180° South 220 253 7,900 -780 Level FlightAware ADS-B
02:29PM 37.3845 -122.2290 206° Southwest 219 252 7,800 -900 Descending FlightAware ADS-B
02:30PM 37.3814 -122.2300 194° South 216 249 7,800 -600 Level FlightAware ADS-B
02:30PM 37.3747 -122.2330 200° South 213 245 7,700 -1,020 Descending FlightAware ADS-B
02:30PM 37.3708 -122.2350 202° Southwest 211 243 7,600 -780 Descending FlightAware ADS-B
02:30PM 37.3676 -122.2360 194° South 210 242 7,600 -900 Level FlightAware ADS-B
02:30PM 37.3641 -122.2370 193° South 208 239 7,500 -720 Descending FlightAware ADS-B
02:30PM 37.3593 -122.2360 171° South 206 237 7,500 -780 Level FlightAware ADS-B
02:30PM 37.3560 -122.2350 166° South 205 236 7,400 -960 Descending FlightAware ADS-B
02:30PM 37.3411 -122.2180 138° Southeast 207 238 7,100 -960 Descending FlightAware ADS-B
02:30PM 37.3400 -122.2140 109° East 207 238 7,000 -1,740 Descending FlightAware ADS-B
02:30PM 37.3393 -122.2100 102° East 208 239 6,900 -1,740 Descending FlightAware ADS-B
02:31PM 37.3390 -122.2050 94° East 209 241 6,800 -1,740 Descending FlightAware ADS-B
02:31PM 37.3391 -122.2010 88° East 210 242 6,700 -1,740 Descending FlightAware ADS-B
02:31PM 37.3396 -122.1970 81° East 210 242 6,600 -1,020 Descending FlightAware ADS-B
02:31PM 37.3405 -122.1940 69° East 211 243 6,600 -900 Level FlightAware ADS-B
02:31PM 37.3419 -122.1880 74° East 211 243 6,500 -1,380 Descending FlightAware ADS-B
02:31PM 37.3474 -122.1740 64° Northeast 213 245 6,200 -1,320 Descending FlightAware ADS-B
02:31PM 37.3536 -122.1570 65° Northeast 214 246 5,900 -1,080 Descending FlightAware ADS-B
02:31PM 37.3551 -122.1540 58° Northeast 213 245 5,900 -900 Level FlightAware ADS-B
02:31PM 37.3572 -122.1500 57° Northeast 213 245 5,800 -720 Descending FlightAware ADS-B
02:31PM 37.3606 -122.1460 43° Northeast 214 246 5,800  Level FlightAware ADS-B
02:32PM 37.3636 -122.1430 38° Northeast 213 245 5,800  Level FlightAware ADS-B
02:32PM 37.3676 -122.1400 31° Northeast 212 244 5,800  Level FlightAware ADS-B
02:32PM 37.3750 -122.1350 28° Northeast 211 243 5,800  Level FlightAware ADS-B
02:32PM 37.3884 -122.1270 25° Northeast 210 242 5,800 -420 Level FlightAware ADS-B
02:32PM 37.4019 -122.1190 25° Northeast 207 238 5,600 -1,020 Descending FlightAware ADS-B
02:32PM 37.4140 -122.1110 28° Northeast 207 238 5,300 -1,260 Descending FlightAware ADS-B
02:33PM 37.4270 -122.1030 26° Northeast 208 239 5,000 -1,200 Descending FlightAware ADS-B
02:33PM 37.4531 -122.0860 27° Northeast 208 239 4,400 -1,080 Descending FlightAware ADS-B
02:33PM 37.4659 -122.0780 26° Northeast 206 237 4,200 -960 Descending FlightAware ADS-B
02:34PM 37.4694 -122.0760 24° Northeast 205 236 4,100 -1,740 Descending FlightAware ADS-B
02:34PM 37.4725 -122.0750 14° North 204 235 4,000 -900 Descending FlightAware ADS-B
02:34PM 37.4756 -122.0740 14° North 202 232 4,000 -780 Level FlightAware ADS-B
02:34PM 37.4794 -122.0740 360° North 199 229 3,900 -900 Descending FlightAware ADS-B
02:34PM 37.4825 -122.0740 360° North 195 224 3,900 -600 Level FlightAware ADS-B
02:34PM 37.4879 -122.0770 336° Northwest 192 221 3,800 -600 Descending FlightAware ADS-B
02:34PM 37.4905 -122.0780 343° North 190 219 3,800  Level FlightAware ADS-B
02:34PM 37.4939 -122.0810 325° Northwest 187 215 3,800  Level FlightAware ADS-B
02:34PM 37.4960 -122.0840 311° West 186 214 3,800  Level FlightAware ADS-B
02:34PM 37.4990 -122.0870 322° Northwest 184 212 3,800  Level FlightAware ADS-B
02:34PM 37.5025 -122.0930 306° West 180 207 3,800  Level FlightAware ADS-B
02:34PM 37.5051 -122.0970 309° West 179 206 3,800  Level FlightAware ADS-B
02:34PM 37.5079 -122.1030 300° West 177 204 3,800  Level FlightAware ADS-B
02:35PM 37.5109 -122.1090 302° West 174 200 3,800  Level FlightAware ADS-B
02:35PM 37.5172 -122.1240 298° West 175 201 3,800  Level FlightAware ADS-B
02:35PM 37.5219 -122.1360 296° West 172 198 3,800 -480 Level FlightAware ADS-B
02:35PM 37.5272 -122.1500 296° West 180 207 3,600 -1,020 Descending FlightAware ADS-B
02:36PM 37.5327 -122.1650 295° West 182 209 3,300 -1,200 Descending FlightAware ADS-B
02:36PM 37.5380 -122.1790 296° West 182 209 3,000 -1,020 Descending FlightAware ADS-B
02:36PM 37.5417 -122.1870 300° West 181 208 2,900 -960 Descending FlightAware ADS-B
02:36PM 37.5478 -122.2010 299° West 183 211 2,600 -1,020 Descending FlightAware ADS-B
02:37PM 37.5540 -122.2160 298° West 185 213 2,400 -1,020 Descending FlightAware ADS-B
02:37PM 37.5603 -122.2310 298° West 180 207 2,100 -1,080 Descending FlightAware ADS-B
02:37PM 37.5656 -122.2430 299° West 173 199 1,900 -1,200 Descending FlightAware ADS-B
02:37PM 37.5684 -122.2500 297° West 171 197 1,700 -1,020 Descending FlightAware ADS-B
02:37PM 37.5721 -122.2580 300° West 164 189 1,600 -900 Descending FlightAware ADS-B
02:37PM 37.5755 -122.2670 295° West 153 176 1,400 -780 Descending FlightAware ADS-B
02:38PM 37.5801 -122.2770 300° West 141 162 1,300 -660 Descending FlightAware ADS-B
02:38PM 37.5843 -122.2870 298° West 138 159 1,100 -840 Descending FlightAware ADS-B
02:38PM 37.5891 -122.2990 297° West 140 161 900 -840 Descending FlightAware ADS-B
02:39PM 37.5954 -122.3140 298° West 142 163 600 -780 Descending FlightAware ADS-B
02:39PM 37.6007 -122.3270 297° West 138 159 400 -840 Descending FlightAware ADS-B
02:39PM 37.6042 -122.3350 299° West 137 158 200 -840 Descending FlightAware ADS-B
02:39PM 37.6076 -122.3430 298° West 135 155 100 -600 Descending FlightAware ADS-B
02:39PM 37.6111 -122.3510 299° West 138 159 -540 Descending FlightAware ADS-B
02:40PM 37.6193 -122.3710 297° West 84 97  Level FlightAware ADS-B